createdAt,value
2022-12-16T00:01:07.938Z,44.22
2022-12-16T00:03:37.083Z,44.38
2022-12-16T00:06:04.926Z,44.43
2022-12-16T00:08:33.710Z,44.55
2022-12-16T00:11:01.903Z,44.46
2022-12-16T00:13:32.465Z,44.39
2022-12-16T00:16:00.726Z,44.26
2022-12-16T00:18:28.368Z,44.51
2022-12-16T00:20:56.397Z,44.46
2022-12-16T00:23:24.133Z,44.55
2022-12-16T00:25:52.001Z,44.55
2022-12-16T00:28:23.307Z,44.43
2022-12-16T00:30:53.062Z,44.39
2022-12-16T00:33:24.550Z,44.25
2022-12-16T00:35:52.529Z,44.55
2022-12-16T00:38:21.425Z,44.32
2022-12-16T00:40:49.132Z,44.20
2022-12-16T00:43:17.014Z,44.28
2022-12-16T00:45:44.625Z,44.21
2022-12-16T00:48:13.972Z,44.32
2022-12-16T00:50:41.943Z,44.52
2022-12-16T00:53:09.776Z,44.43
2022-12-16T00:55:37.296Z,44.41
2022-12-16T00:58:04.960Z,44.43
2022-12-16T01:00:32.550Z,44.24
2022-12-16T01:03:00.388Z,44.22
2022-12-16T01:05:29.403Z,44.34
2022-12-16T01:07:57.274Z,43.97
2022-12-16T01:10:25.765Z,44.33
2022-12-16T01:12:53.416Z,44.37
2022-12-16T01:15:22.847Z,44.16
2022-12-16T01:17:50.480Z,44.25
2022-12-16T01:20:18.270Z,44.23
2022-12-16T01:22:47.391Z,44.20
2022-12-16T01:25:15.433Z,44.34
2022-12-16T01:27:43.012Z,43.98
2022-12-16T01:30:11.528Z,44.07
2022-12-16T01:32:39.128Z,44.16
2022-12-16T01:35:18.109Z,44.05
2022-12-16T01:37:56.140Z,44.02
2022-12-16T01:40:25.655Z,44.14
2022-12-16T01:42:53.265Z,44.10
2022-12-16T01:45:30.691Z,44.05
2022-12-16T01:48:00.039Z,43.74
2022-12-16T01:50:29.552Z,44.17
2022-12-16T01:53:01.231Z,43.79
2022-12-16T01:55:30.949Z,44.02
2022-12-16T01:58:00.668Z,43.75
2022-12-16T02:00:28.218Z,43.97
2022-12-16T02:02:56.716Z,43.71
2022-12-16T02:05:24.942Z,43.77
2022-12-16T02:07:55.977Z,44.01
2022-12-16T02:10:28.876Z,44.10
2022-12-16T02:13:00.412Z,44.10
2022-12-16T02:15:36.763Z,43.80
2022-12-16T02:18:10.569Z,43.93
2022-12-16T02:20:47.809Z,44.04
2022-12-16T02:23:32.100Z,43.80
2022-12-16T02:26:12.335Z,44.06
2022-12-16T02:28:46.611Z,43.76
2022-12-16T02:31:20.475Z,44.17
2022-12-16T02:33:53.472Z,44.10
2022-12-16T02:36:26.507Z,43.93
2022-12-16T02:38:57.935Z,43.86
2022-12-16T02:41:29.286Z,43.79
2022-12-16T02:43:59.642Z,43.82
2022-12-16T02:46:30.159Z,43.79
2022-12-16T02:48:57.889Z,43.69
2022-12-16T02:51:27.158Z,43.74
2022-12-16T02:53:56.650Z,43.83
2022-12-16T02:56:31.549Z,43.81
2022-12-16T02:59:07.348Z,43.75
2022-12-16T03:01:40.715Z,43.42
2022-12-16T03:04:11.986Z,43.35
2022-12-16T03:06:42.071Z,43.68
2022-12-16T03:09:12.095Z,43.55
2022-12-16T03:11:42.980Z,43.64
2022-12-16T03:14:13.586Z,43.70
2022-12-16T03:16:43.102Z,43.37
2022-12-16T03:19:12.517Z,43.41
2022-12-16T03:21:44.869Z,43.41
2022-12-16T03:24:13.816Z,43.66
2022-12-16T03:26:44.715Z,43.15
2022-12-16T03:29:15.392Z,43.66
2022-12-16T03:31:47.649Z,43.54
2022-12-16T03:34:17.708Z,43.55
2022-12-16T03:36:48.775Z,43.22
2022-12-16T03:39:16.672Z,43.16
2022-12-16T03:41:44.889Z,43.42
2022-12-16T03:44:13.029Z,43.14
2022-12-16T03:46:40.887Z,43.00
2022-12-16T03:49:09.898Z,43.03
2022-12-16T03:51:37.586Z,43.31
2022-12-16T03:54:05.314Z,43.15
2022-12-16T03:56:32.961Z,43.19
2022-12-16T03:59:00.866Z,43.10
2022-12-16T04:01:28.793Z,43.07
2022-12-16T04:03:56.586Z,42.90
2022-12-16T04:06:25.576Z,43.10
2022-12-16T04:08:53.313Z,43.28
2022-12-16T04:11:38.150Z,43.00
2022-12-16T04:14:23.376Z,42.94
2022-12-16T04:17:08.679Z,43.21
2022-12-16T04:19:55.713Z,42.94
2022-12-16T04:22:39.959Z,43.28
2022-12-16T04:25:09.145Z,43.05
2022-12-16T04:27:36.858Z,43.16
2022-12-16T04:30:20.380Z,43.12
2022-12-16T04:33:07.080Z,43.20
2022-12-16T04:35:52.221Z,43.25
2022-12-16T04:38:38.720Z,43.42
2022-12-16T04:41:23.856Z,43.06
2022-12-16T04:44:09.011Z,43.15
2022-12-16T04:46:54.571Z,43.55
2022-12-16T04:49:39.811Z,43.36
2022-12-16T04:52:25.059Z,43.10
2022-12-16T04:55:11.625Z,43.46
2022-12-16T04:57:56.704Z,43.12
2022-12-16T05:00:41.854Z,43.18
2022-12-16T05:03:38.833Z,43.42
2022-12-16T05:06:23.997Z,43.13
2022-12-16T05:09:09.022Z,43.05
2022-12-16T05:11:55.749Z,42.97
2022-12-16T05:14:40.902Z,42.90
2022-12-16T05:17:26.282Z,43.00
2022-12-16T05:20:11.133Z,42.72
2022-12-16T05:22:56.190Z,42.74
2022-12-16T05:25:41.184Z,42.86
2022-12-16T05:28:28.690Z,42.91
2022-12-16T05:31:14.020Z,42.63
2022-12-16T05:33:58.889Z,42.96
2022-12-16T05:36:55.290Z,42.97
2022-12-16T05:39:40.405Z,43.07
2022-12-16T05:42:25.550Z,42.89
2022-12-16T05:45:12.301Z,42.91
2022-12-16T05:47:58.244Z,42.97
2022-12-16T05:50:43.230Z,42.88
2022-12-16T05:53:34.513Z,43.13
2022-12-16T05:56:19.622Z,42.89
2022-12-16T05:59:05.198Z,43.08
2022-12-16T06:01:52.105Z,43.23
2022-12-16T06:04:37.279Z,43.14
2022-12-16T06:07:22.585Z,43.06
2022-12-16T06:10:07.759Z,43.17
2022-12-16T06:12:53.090Z,42.94
2022-12-16T06:15:38.112Z,43.13
2022-12-16T06:18:24.898Z,43.18
2022-12-16T06:21:10.159Z,43.27
2022-12-16T06:23:55.263Z,43.03
2022-12-16T06:26:40.256Z,42.90
2022-12-16T06:29:23.720Z,43.01
2022-12-16T06:32:05.320Z,43.08
2022-12-16T06:34:51.792Z,42.94
2022-12-16T06:37:36.903Z,43.05
2022-12-16T06:40:22.067Z,43.23
2022-12-16T06:43:07.118Z,43.27
2022-12-16T06:45:52.120Z,43.08
2022-12-16T06:48:37.336Z,42.78
2022-12-16T06:51:24.202Z,42.97
2022-12-16T06:54:09.442Z,42.92
2022-12-16T06:56:54.465Z,43.05
2022-12-16T06:59:39.373Z,42.69
2022-12-16T07:02:27.075Z,42.72
2022-12-16T07:05:12.537Z,42.54
2022-12-16T07:08:05.016Z,42.76
2022-12-16T07:10:50.255Z,42.61
2022-12-16T07:13:35.670Z,42.50
2022-12-16T07:16:20.691Z,42.71
2022-12-16T07:19:05.695Z,42.92
2022-12-16T07:21:47.211Z,42.83
2022-12-16T07:24:33.751Z,42.94
2022-12-16T07:27:19.035Z,42.82
2022-12-16T07:30:04.046Z,42.77
2022-12-16T07:32:49.330Z,43.03
2022-12-16T07:35:34.597Z,43.08
2022-12-16T07:38:19.018Z,43.05
2022-12-16T07:41:06.020Z,43.12
2022-12-16T07:43:51.203Z,42.92
2022-12-16T07:46:36.285Z,43.05
2022-12-16T07:49:21.324Z,42.69
2022-12-16T07:52:06.244Z,43.12
2022-12-16T07:54:51.371Z,42.95
2022-12-16T07:57:38.017Z,42.74
2022-12-16T08:00:23.494Z,43.19
2022-12-16T08:03:10.805Z,42.93
2022-12-16T08:05:56.047Z,42.81
2022-12-16T08:08:41.191Z,42.71
2022-12-16T08:11:26.516Z,43.15
2022-12-16T08:14:13.157Z,43.13
2022-12-16T08:16:58.595Z,43.09
2022-12-16T08:19:43.913Z,42.89
2022-12-16T08:22:29.408Z,42.94
2022-12-16T08:25:14.448Z,42.92
2022-12-16T08:27:59.814Z,42.98
2022-12-16T08:30:46.262Z,42.88
2022-12-16T08:33:32.025Z,42.94
2022-12-16T08:36:17.565Z,42.92
2022-12-16T08:39:02.560Z,43.00
2022-12-16T08:41:47.867Z,42.94
2022-12-16T08:44:32.984Z,43.09
2022-12-16T08:47:19.474Z,43.08
2022-12-16T08:50:04.582Z,42.99
2022-12-16T08:52:49.788Z,43.26
2022-12-16T08:55:35.095Z,43.49
2022-12-16T08:58:20.175Z,43.39
2022-12-16T09:01:07.786Z,43.63
2022-12-16T09:03:54.876Z,43.41
2022-12-16T09:06:41.137Z,43.41
2022-12-16T09:09:26.639Z,43.78
2022-12-16T09:12:11.770Z,43.70
2022-12-16T09:14:56.976Z,43.66
2022-12-16T09:17:42.180Z,43.67
2022-12-16T09:20:28.884Z,43.79
2022-12-16T09:23:14.263Z,43.66
2022-12-16T09:25:59.326Z,43.61
2022-12-16T09:28:44.522Z,43.89
2022-12-16T09:31:29.725Z,43.76
2022-12-16T09:34:14.679Z,43.77
2022-12-16T09:37:03.254Z,43.92
2022-12-16T09:39:48.359Z,44.17
2022-12-16T09:42:39.602Z,44.41
2022-12-16T09:45:26.326Z,44.53
2022-12-16T09:48:16.757Z,44.53
2022-12-16T09:51:03.090Z,44.58
2022-12-16T09:53:53.051Z,44.72
2022-12-16T09:56:41.221Z,44.82
2022-12-16T09:59:29.964Z,44.81
2022-12-16T10:02:15.606Z,44.75
2022-12-16T10:05:01.643Z,44.77
2022-12-16T10:07:49.736Z,44.89
2022-12-16T10:10:44.320Z,44.99
2022-12-16T10:13:36.770Z,45.06
2022-12-16T10:16:27.152Z,45.23
2022-12-16T10:19:16.841Z,44.85
2022-12-16T10:22:06.827Z,44.90
2022-12-16T10:24:56.819Z,45.03
2022-12-16T10:27:48.822Z,44.88
2022-12-16T10:30:34.268Z,45.22
2022-12-16T10:33:20.563Z,45.16
2022-12-16T10:36:08.043Z,45.28
2022-12-16T10:38:56.797Z,45.34
2022-12-16T10:41:43.979Z,45.46
2022-12-16T10:44:37.158Z,45.38
2022-12-16T10:47:22.491Z,45.53
2022-12-16T10:50:09.787Z,45.75
2022-12-16T10:53:02.031Z,45.54
2022-12-16T10:55:53.439Z,45.57
2022-12-16T10:58:41.857Z,45.27
2022-12-16T11:01:40.292Z,45.64
2022-12-16T11:04:44.447Z,45.70
2022-12-16T11:07:41.569Z,45.63
2022-12-16T11:10:42.607Z,45.72
2022-12-16T11:13:31.254Z,45.91
2022-12-16T11:16:24.526Z,45.78
2022-12-16T11:19:10.944Z,45.73
2022-12-16T11:21:56.162Z,45.78
2022-12-16T11:24:41.387Z,46.13
2022-12-16T11:27:31.879Z,45.94
2022-12-16T11:30:18.273Z,45.99
2022-12-16T11:33:05.089Z,45.88
2022-12-16T11:35:52.378Z,45.99
2022-12-16T11:38:39.885Z,45.99
2022-12-16T11:41:26.004Z,45.92
2022-12-16T11:44:12.183Z,45.96
2022-12-16T11:46:57.418Z,46.31
2022-12-16T11:49:45.698Z,46.04
2022-12-16T11:52:37.796Z,46.11
2022-12-16T11:55:56.063Z,46.00
2022-12-16T11:58:37.030Z,46.25
2022-12-16T12:01:28.293Z,46.10
2022-12-16T12:04:13.877Z,46.07
2022-12-16T12:07:11.229Z,46.03
2022-12-16T12:10:00.277Z,46.02
2022-12-16T12:12:50.972Z,46.07
2022-12-16T12:15:40.672Z,46.06
2022-12-16T12:18:32.451Z,46.02
2022-12-16T12:21:22.945Z,46.32
2022-12-16T12:24:11.055Z,46.34
2022-12-16T12:27:02.610Z,46.10
2022-12-16T12:29:52.389Z,46.15
2022-12-16T12:32:44.092Z,46.11
2022-12-16T12:35:36.264Z,46.48
2022-12-16T12:38:26.499Z,46.25
2022-12-16T12:41:16.884Z,46.34
2022-12-16T12:44:09.189Z,46.32
2022-12-16T12:46:58.981Z,46.57
2022-12-16T12:49:47.601Z,46.62
2022-12-16T12:52:37.479Z,46.75
2022-12-16T12:55:27.906Z,46.54
2022-12-16T12:58:10.463Z,46.59
2022-12-16T13:01:01.249Z,46.56
2022-12-16T13:03:51.177Z,46.71
2022-12-16T13:06:36.610Z,46.89
2022-12-16T13:09:22.139Z,46.68
2022-12-16T13:12:26.634Z,46.79
2022-12-16T13:15:12.750Z,47.05
2022-12-16T13:18:16.799Z,46.69
2022-12-16T13:21:03.330Z,46.85
2022-12-16T13:23:50.204Z,47.01
2022-12-16T13:26:36.464Z,47.02
2022-12-16T13:29:36.135Z,47.20
2022-12-16T13:32:23.417Z,47.11
2022-12-16T13:35:17.884Z,47.04
2022-12-16T13:38:11.622Z,47.26
2022-12-16T13:41:12.066Z,47.46
2022-12-16T13:44:03.264Z,47.15
2022-12-16T13:46:58.046Z,47.13
2022-12-16T13:49:58.415Z,47.18
2022-12-16T13:52:50.165Z,47.08
2022-12-16T13:55:38.257Z,47.48
2022-12-16T13:58:26.959Z,47.33
2022-12-16T14:01:20.366Z,47.36
2022-12-16T14:04:06.912Z,47.35
2022-12-16T14:06:53.347Z,47.50
2022-12-16T14:09:45.365Z,47.30
2022-12-16T14:12:38.209Z,47.46
2022-12-16T14:15:25.952Z,47.58
2022-12-16T14:18:14.857Z,47.32
2022-12-16T14:21:06.216Z,47.50
2022-12-16T14:23:57.629Z,47.53
2022-12-16T14:26:44.050Z,47.51
2022-12-16T14:29:36.948Z,47.48
2022-12-16T14:32:36.421Z,47.55
2022-12-16T14:35:21.570Z,47.69
2022-12-16T14:38:06.941Z,47.82
2022-12-16T14:40:52.248Z,47.67
2022-12-16T14:43:39.094Z,47.71
2022-12-16T14:46:37.064Z,47.66
2022-12-16T14:49:27.864Z,47.98
2022-12-16T14:52:27.389Z,48.02
2022-12-16T14:55:12.439Z,47.89
2022-12-16T14:57:57.427Z,47.57
2022-12-16T15:00:42.665Z,48.06
2022-12-16T15:03:35.895Z,47.80
2022-12-16T15:06:22.399Z,48.06
2022-12-16T15:09:09.411Z,48.05
2022-12-16T15:11:55.170Z,48.05
2022-12-16T15:14:44.497Z,48.13
2022-12-16T15:17:36.926Z,48.12
2022-12-16T15:20:25.572Z,48.30
2022-12-16T15:23:11.210Z,48.25
2022-12-16T15:26:02.173Z,48.21
2022-12-16T15:28:56.785Z,48.49
2022-12-16T15:31:43.330Z,48.32
2022-12-16T15:34:42.236Z,48.32
2022-12-16T15:37:45.237Z,48.18
2022-12-16T15:40:47.940Z,48.36
2022-12-16T15:43:41.627Z,48.44
2022-12-16T15:46:34.495Z,48.41
2022-12-16T15:49:25.093Z,48.36
2022-12-16T15:52:10.588Z,48.48
2022-12-16T15:55:08.171Z,48.51
2022-12-16T15:57:54.296Z,48.54
2022-12-16T16:00:54.250Z,48.49
2022-12-16T16:03:41.932Z,48.38
2022-12-16T16:06:34.437Z,48.52
2022-12-16T16:09:19.609Z,48.59
2022-12-16T16:12:04.683Z,48.51
2022-12-16T16:14:49.544Z,48.72
2022-12-16T16:17:40.620Z,48.59
2022-12-16T16:20:32.254Z,48.72
2022-12-16T16:23:18.208Z,48.53
2022-12-16T16:26:04.302Z,48.52
2022-12-16T16:28:49.581Z,48.48
2022-12-16T16:31:34.624Z,48.76
2022-12-16T16:34:23.614Z,48.72
2022-12-16T16:37:11.014Z,48.71
2022-12-16T16:39:56.664Z,48.81
2022-12-16T16:42:42.000Z,48.77
2022-12-16T16:45:27.704Z,48.74
2022-12-16T16:48:19.641Z,48.71
2022-12-16T16:51:06.522Z,48.98
2022-12-16T16:53:51.452Z,48.77
2022-12-16T16:56:39.378Z,48.74
2022-12-16T16:59:24.469Z,48.72
2022-12-16T17:02:09.500Z,48.97
2022-12-16T17:04:55.082Z,48.95
2022-12-16T17:07:41.673Z,48.61
2022-12-16T17:10:27.152Z,48.90
2022-12-16T17:13:12.524Z,48.89
2022-12-16T17:15:58.066Z,49.01
2022-12-16T17:18:47.772Z,48.97
2022-12-16T17:21:35.706Z,48.84
2022-12-16T17:24:22.369Z,48.95
2022-12-16T17:27:22.045Z,49.06
2022-12-16T17:30:06.981Z,49.16
2022-12-16T17:32:52.197Z,49.13
2022-12-16T17:35:37.617Z,48.99
2022-12-16T17:38:22.698Z,49.13
2022-12-16T17:41:13.813Z,49.08
2022-12-16T17:43:59.298Z,48.97
2022-12-16T17:46:44.740Z,48.93
2022-12-16T17:49:30.139Z,49.24
2022-12-16T17:52:15.562Z,49.01
2022-12-16T17:55:09.221Z,48.90
2022-12-16T17:57:55.747Z,49.23
2022-12-16T18:00:41.099Z,49.28
2022-12-16T18:03:26.224Z,49.22
2022-12-16T18:06:14.514Z,49.14
2022-12-16T18:09:08.110Z,49.16
2022-12-16T18:11:49.700Z,49.18
2022-12-16T18:14:36.183Z,49.37
2022-12-16T18:17:21.396Z,49.27
2022-12-16T18:20:06.502Z,49.19
2022-12-16T18:22:51.683Z,49.22
2022-12-16T18:25:37.403Z,49.27
2022-12-16T18:28:23.142Z,49.46
2022-12-16T18:31:10.066Z,49.42
2022-12-16T18:33:55.018Z,49.42
2022-12-16T18:36:40.276Z,49.39
2022-12-16T18:39:25.495Z,49.54
2022-12-16T18:42:10.667Z,49.21
2022-12-16T18:45:00.810Z,49.61
2022-12-16T18:47:47.135Z,49.26
2022-12-16T18:50:37.463Z,49.44
2022-12-16T18:53:22.873Z,49.34
2022-12-16T18:56:16.883Z,49.64
2022-12-16T18:59:02.289Z,49.58
2022-12-16T19:01:47.776Z,49.26
2022-12-16T19:04:42.770Z,49.41
2022-12-16T19:07:29.094Z,49.43
2022-12-16T19:10:16.839Z,49.22
2022-12-16T19:13:07.567Z,49.38
2022-12-16T19:15:52.776Z,49.43
2022-12-16T19:18:38.040Z,49.46
2022-12-16T19:21:24.439Z,49.41
2022-12-16T19:24:09.679Z,49.35
2022-12-16T19:27:00.073Z,49.34
2022-12-16T19:29:45.244Z,49.39
2022-12-16T19:32:30.618Z,49.22
2022-12-16T19:35:15.873Z,49.18
2022-12-16T19:38:02.456Z,49.42
2022-12-16T19:40:47.541Z,49.31
2022-12-16T19:43:32.800Z,49.27
2022-12-16T19:46:23.579Z,49.34
2022-12-16T19:49:08.887Z,49.61
2022-12-16T19:51:53.926Z,49.61
2022-12-16T19:54:43.235Z,49.52
2022-12-16T19:57:28.351Z,49.57
2022-12-16T20:00:13.691Z,49.63
2022-12-16T20:02:59.078Z,49.53
2022-12-16T20:05:44.641Z,49.62
2022-12-16T20:08:31.442Z,49.77
2022-12-16T20:11:22.111Z,49.80
2022-12-16T20:14:10.013Z,49.63
2022-12-16T20:16:55.366Z,49.55
2022-12-16T20:19:42.457Z,49.44
2022-12-16T20:22:27.725Z,49.43
2022-12-16T20:25:12.907Z,49.62
2022-12-16T20:27:59.723Z,49.82
2022-12-16T20:30:44.848Z,49.47
2022-12-16T20:34:01.223Z,49.63
2022-12-16T20:36:48.344Z,49.45
2022-12-16T20:39:34.021Z,49.62
2022-12-16T20:42:19.213Z,49.85
2022-12-16T20:45:06.048Z,49.65
2022-12-16T20:47:51.559Z,49.61
2022-12-16T20:50:36.929Z,49.69
2022-12-16T20:53:22.213Z,49.92
2022-12-16T20:56:07.712Z,49.49
2022-12-16T20:58:56.203Z,49.89
2022-12-16T21:02:22.269Z,49.53
2022-12-16T21:05:04.628Z,49.72
2022-12-16T21:07:49.991Z,49.69
2022-12-16T21:10:35.245Z,49.57
2022-12-16T21:13:32.412Z,49.98
2022-12-16T21:16:18.307Z,50.07
2022-12-16T21:19:05.466Z,50.06
2022-12-16T21:21:51.723Z,50.16
2022-12-16T21:24:42.440Z,49.83
2022-12-16T21:27:47.470Z,49.58
2022-12-16T21:30:33.179Z,49.85
2022-12-16T21:33:33.039Z,49.69
2022-12-16T21:36:19.902Z,49.85
2022-12-16T21:39:05.829Z,49.82
2022-12-16T21:41:51.214Z,49.73
2022-12-16T21:44:37.169Z,49.88
2022-12-16T21:47:31.391Z,49.98
2022-12-16T21:50:16.549Z,50.14
2022-12-16T21:53:19.787Z,50.14
2022-12-16T21:56:12.016Z,49.95
2022-12-16T21:58:57.461Z,50.07
2022-12-16T22:01:45.136Z,49.88
2022-12-16T22:04:30.472Z,49.91
2022-12-16T22:07:15.454Z,50.07
2022-12-16T22:10:02.891Z,50.05
2022-12-16T22:12:48.213Z,50.20
2022-12-16T22:15:33.782Z,50.19
2022-12-16T22:18:19.097Z,49.78
2022-12-16T22:21:13.041Z,50.05
2022-12-16T22:23:58.374Z,50.00
2022-12-16T22:26:45.264Z,49.93
2022-12-16T22:29:31.859Z,49.93
2022-12-16T22:32:17.358Z,49.81
2022-12-16T22:35:02.648Z,49.82
2022-12-16T22:37:47.776Z,50.07
2022-12-16T22:40:33.203Z,49.85
2022-12-16T22:43:20.035Z,49.92
2022-12-16T22:46:05.513Z,49.75
2022-12-16T22:48:47.254Z,49.96
2022-12-16T22:51:33.326Z,49.95
2022-12-16T22:54:18.951Z,49.99
2022-12-16T22:57:04.293Z,50.03
2022-12-16T22:59:51.765Z,50.08
2022-12-16T23:02:37.110Z,50.03
2022-12-16T23:05:27.342Z,49.99
2022-12-16T23:08:13.257Z,49.87
2022-12-16T23:11:13.112Z,50.08
2022-12-16T23:13:58.250Z,49.88
2022-12-16T23:16:45.249Z,50.12
2022-12-16T23:19:30.309Z,49.81
2022-12-16T23:22:15.713Z,49.91
2022-12-16T23:25:00.921Z,49.66
2022-12-16T23:27:46.517Z,50.02
2022-12-16T23:30:31.939Z,49.74
2022-12-16T23:33:18.865Z,50.06
2022-12-16T23:36:03.959Z,50.13
2022-12-16T23:38:49.310Z,50.19
2022-12-16T23:41:34.601Z,50.17
2022-12-16T23:44:19.928Z,50.04
2022-12-16T23:47:05.145Z,50.00
2022-12-16T23:49:52.001Z,50.11
2022-12-16T23:52:37.418Z,50.02
2022-12-16T23:55:22.659Z,50.03
2022-12-16T23:58:15.594Z,49.99
